| time (UTC) | temp F | wind direction | speed MPH | gust MPH | rain 1hr in | rain 24hr in | rain mn in | humidity % | barometer mb |
| 20260506182551 | 56 | 249 | 4.0 | 10.0 | 0.09 | 0.22 | 0.22 | 27 | 1006.4 |
| 20260506182050 | 56 | 244 | 4.0 | 10.0 | 0.08 | 0.21 | 0.21 | 27 | 1006.5 |
| 20260506181625 | 57 | 199 | 1.0 | 5.0 | 0.09 | 0.21 | 0.21 | 26 | 1006.4 |
| 20260506181050 | 57 | 63 | 0.0 | 9.0 | 0.11 | 0.21 | 0.21 | 27 | 1006.5 |
| 20260506180550 | 57 | 231 | 2.0 | 9.0 | 0.11 | 0.20 | 0.20 | 27 | 1006.4 |
| 20260506180059 | 57 | 202 | 2.0 | 9.0 | 0.12 | 0.20 | 0.20 | 27 | 1006.6 |
| 20260506175550 | 57 | 171 | 3.0 | 9.0 | 0.13 | 0.20 | 0.20 | 27 | 1006.7 |
| 20260506175049 | 57 | 325 | 1.0 | 6.0 | 0.13 | 0.19 | 0.19 | 28 | 1006.6 |
| 20260506174558 | 57 | 0 | 2.0 | 6.0 | 0.12 | 0.17 | 0.17 | 28 | 1006.8 |
| 20260506174050 | 57 | 242 | 1.0 | 6.0 | 0.10 | 0.14 | 0.14 | 28 | 1006.9 |
| 20260506173550 | 57 | 204 | 1.0 | 5.0 | 0.11 | 0.14 | 0.14 | 28 | 1006.8 |
| 20260506173121 | 57 | 128 | 1.0 | 5.0 | 0.10 | 0.13 | 0.13 | 28 | 1006.8 |
| 20260506172550 | 57 | 196 | 1.0 | 7.0 | 0.11 | 0.13 | 0.13 | 29 | 1006.9 |
| 20260506172050 | 57 | 182 | 2.0 | 7.0 | 0.11 | 0.13 | 0.13 | 29 | 1007.0 |
| 20260506171602 | 57 | 0 | 0.0 | 3.0 | 0.11 | 0.12 | 0.12 | 29 | 1007.2 |
| 20260506171051 | 57 | 0 | 0.0 | 3.0 | 0.09 | 0.10 | 0.10 | 31 | 1007.2 |
| 20260506170550 | 57 | 0 | 0.0 | 3.0 | 0.08 | 0.09 | 0.09 | 31 | 1007.2 |
| 20260506170107 | 57 | 0 | 0.0 | 2.0 | 0.08 | 0.08 | 0.08 | 32 | 1007.4 |
| 20260506165553 | 57 | 0 | 0.0 | 4.0 | 0.07 | 0.07 | 0.07 | 34 | 1007.6 |
| 20260506165051 | 57 | 0 | 0.0 | 9.0 | 0.06 | 0.06 | 0.06 | 35 | 1007.6 |
| 20260506164603 | 58 | 299 | 2.0 | 9.0 | 0.05 | 0.05 | 0.05 | 38 | 1007.8 |
| 20260506164050 | 58 | 225 | 1.0 | 5.0 | 0.04 | 0.04 | 0.04 | 39 | 1007.7 |
| 20260506163549 | 58 | 233 | 0.0 | 5.0 | 0.03 | 0.03 | 0.03 | 42 | 1007.8 |
| 20260506163059 | 59 | 315 | 0.0 | 8.0 | 0.03 | 0.03 | 0.03 | 44 | 1007.7 |
| 20260506162548 | 59 | 0 | 2.0 | 8.0 | 0.02 | 0.02 | 0.02 | 46 | 1007.8 |
| 20260506162049 | 59 | 288 | 1.0 | 6.0 | 0.02 | 0.02 | 0.02 | 48 | 1007.9 |
| 20260506161550 | 60 | 0 | 0.0 | 6.0 | 0.01 | 0.01 | 0.01 | 49 | 1008.0 |
| 20260506161050 | 60 | 0 | 1.0 | 7.0 | 0.01 | 0.01 | 0.01 | 51 | 1008.0 |
| 20260506160551 | 60 | 0 | 2.0 | 7.0 | 0.01 | 0.01 | 0.01 | 53 | 1008.1 |
| 20260506160107 | 60 | 241 | 2.0 | 7.0 | 0.00 | 0.00 | 0.00 | 55 | 1008.1 |
| 20260506155550 | 61 | 191 | 2.0 | 6.0 | 0.00 | 0.00 | 0.00 | 56 | 1007.9 |
| 20260506155050 | 61 | 0 | 1.0 | 6.0 | 0.00 | 0.00 | 0.00 | 57 | 1007.8 |
| 20260506154554 | 61 | 0 | 0.0 | 7.0 | 0.00 | 0.00 | 0.00 | 59 | 1007.8 |
| 20260506154050 | 61 | 0 | 0.0 | 7.0 | 0.00 | 0.00 | 0.00 | 60 | 1008.0 |
| 20260506153550 | 62 | 242 | 2.0 | 7.0 | 0.00 | 0.00 | 0.00 | 61 | 1007.9 |
| 20260506153050 | 62 | 257 | 1.0 | 13.0 | 0.00 | 0.00 | 0.00 | 62 | 1008.0 |
| 20260506152551 | 62 | 221 | 2.0 | 13.0 | 0.00 | 0.00 | 0.00 | 62 | 1007.9 |
| 20260506152051 | 62 | 254 | 4.0 | 13.0 | 0.00 | 0.00 | 0.00 | 63 | 1008.0 |
| 20260506151556 | 62 | 247 | 2.0 | 9.0 | 0.00 | 0.00 | 0.00 | 63 | 1008.2 |
| 20260506151049 | 62 | 302 | 2.0 | 11.0 | 0.00 | 0.00 | 0.00 | 63 | 1008.3 |
| 20260506150550 | 62 | 325 | 3.0 | 11.0 | 0.00 | 0.00 | 0.00 | 63 | 1008.3 |
| 20260506145550 | 62 | 302 | 4.0 | 11.0 | 0.00 | 0.00 | 0.00 | 63 | 1008.4 |
| 20260506145049 | 62 | 286 | 3.0 | 11.0 | 0.00 | 0.00 | 0.00 | 63 | 1008.5 |
| 20260506144554 | 62 | 253 | 3.0 | 14.0 | 0.00 | 0.00 | 0.00 | 63 | 1008.6 |
| 20260506144049 | 62 | 105 | 5.0 | 14.0 | 0.00 | 0.00 | 0.00 | 63 | 1008.5 |
| 20260506143549 | 62 | 285 | 3.0 | 11.0 | 0.00 | 0.00 | 0.00 | 63 | 1008.4 |
| 20260506143055 | 62 | 207 | 4.0 | 11.0 | 0.00 | 0.00 | 0.00 | 63 | 1008.6 |
| 20260506142550 | 62 | 269 | 2.0 | 9.0 | 0.00 | 0.00 | 0.00 | 63 | 1008.6 |
| 20260506142050 | 62 | 259 | 1.0 | 14.0 | 0.00 | 0.00 | 0.00 | 63 | 1008.6 |
| 20260506141554 | 62 | 236 | 3.0 | 14.0 | 0.00 | 0.00 | 0.00 | 63 | 1008.5 |
| 20260506141050 | 62 | 184 | 5.0 | 11.0 | 0.00 | 0.00 | 0.00 | 63 | 1008.6 |
| 20260506140554 | 62 | 299 | 5.0 | 17.0 | 0.00 | 0.00 | 0.00 | 63 | 1008.7 |
| 20260506140051 | 62 | 236 | 4.0 | 17.0 | 0.00 | 0.00 | 0.00 | 63 | 1008.5 |
| 20260506135549 | 62 | 286 | 5.0 | 17.0 | 0.00 | 0.00 | 0.00 | 63 | 1008.3 |
| 20260506135049 | 63 | 259 | 6.0 | 14.0 | 0.00 | 0.00 | 0.00 | 63 | 1008.5 |
| 20260506134549 | 63 | 238 | 4.0 | 12.0 | 0.00 | 0.00 | 0.00 | 62 | 1008.5 |
| 20260506134050 | 62 | 242 | 4.0 | 12.0 | 0.00 | 0.00 | 0.00 | 62 | 1008.4 |
| 20260506133549 | 62 | 320 | 5.0 | 14.0 | 0.00 | 0.00 | 0.00 | 61 | 1008.3 |
| 20260506133049 | 62 | 192 | 4.0 | 14.0 | 0.00 | 0.00 | 0.00 | 61 | 1008.0 |
| 20260506132620 | 62 | 191 | 4.0 | 14.0 | 0.00 | 0.00 | 0.00 | 61 | 1008.1 |
| 20260506132049 | 61 | 298 | 4.0 | 15.0 | 0.00 | 0.00 | 0.00 | 60 | 1008.3 |
| 20260506131602 | 61 | 311 | 4.0 | 15.0 | 0.00 | 0.00 | 0.00 | 60 | 1008.3 |
| 20260506131049 | 61 | 246 | 4.0 | 12.0 | 0.00 | 0.00 | 0.00 | 60 | 1008.2 |
| 20260506130549 | 61 | 256 | 4.0 | 12.0 | 0.00 | 0.00 | 0.00 | 60 | 1008.2 |
| 20260506130055 | 61 | 198 | 2.0 | 11.0 | 0.00 | 0.00 | 0.00 | 60 | 1008.0 |
| 20260506125549 | 61 | 219 | 3.0 | 16.0 | 0.00 | 0.00 | 0.00 | 60 | 1008.5 |
| 20260506125050 | 61 | 226 | 5.0 | 16.0 | 0.00 | 0.00 | 0.00 | 60 | 1008.5 |
| 20260506124557 | 61 | 241 | 2.0 | 11.0 | 0.00 | 0.00 | 0.00 | 60 | 1008.5 |
| 20260506124050 | 61 | 335 | 4.0 | 11.0 | 0.00 | 0.00 | 0.00 | 60 | 1008.7 |
| 20260506123550 | 61 | 196 | 3.0 | 10.0 | 0.00 | 0.00 | 0.00 | 60 | 1008.8 |
| 20260506123053 | 61 | 234 | 3.0 | 10.0 | 0.00 | 0.00 | 0.00 | 60 | 1008.8 |
| 20260506122550 | 61 | 259 | 2.0 | 8.0 | 0.00 | 0.00 | 0.00 | 59 | 1008.8 |
| 20260506122049 | 61 | 0 | 2.0 | 9.0 | 0.00 | 0.00 | 0.00 | 60 | 1008.8 |
| 20260506121552 | 61 | 279 | 3.0 | 13.0 | 0.00 | 0.00 | 0.00 | 60 | 1008.8 |
| 20260506121050 | 60 | 308 | 2.0 | 13.0 | 0.00 | 0.00 | 0.00 | 60 | 1009.0 |
| 20260506120554 | 60 | 290 | 1.0 | 10.0 | 0.00 | 0.00 | 0.00 | 60 | 1008.6 |
| 20260506120053 | 60 | 0 | 5.0 | 10.0 | 0.00 | 0.00 | 0.00 | 59 | 1008.7 |
| 20260506115550 | 60 | 262 | 2.0 | 10.0 | 0.00 | 0.00 | 0.00 | 59 | 1008.9 |
| 20260506115050 | 60 | 206 | 1.0 | 10.0 | 0.00 | 0.00 | 0.00 | 59 | 1008.7 |
| 20260506114550 | 60 | 288 | 3.0 | 8.0 | 0.00 | 0.00 | 0.00 | 59 | 1008.7 |
| 20260506114049 | 60 | 193 | 2.0 | 8.0 | 0.00 | 0.00 | 0.00 | 59 | 1008.5 |
| 20260506113549 | 60 | 226 | 2.0 | 8.0 | 0.00 | 0.00 | 0.00 | 58 | 1008.5 |
| 20260506113050 | 60 | 188 | 2.0 | 8.0 | 0.00 | 0.00 | 0.00 | 57 | 1008.5 |
| 20260506112552 | 59 | 288 | 3.0 | 8.0 | 0.00 | 0.00 | 0.00 | 55 | 1008.4 |
| 20260506112049 | 59 | 166 | 0.0 | 10.0 | 0.00 | 0.00 | 0.00 | 54 | 1008.5 |
| 20260506111553 | 59 | 0 | 0.0 | 11.0 | 0.00 | 0.00 | 0.00 | 52 | 1008.4 |
| 20260506111049 | 58 | 182 | 2.0 | 11.0 | 0.00 | 0.00 | 0.00 | 50 | 1008.4 |
| 20260506110550 | 58 | 210 | 2.0 | 7.0 | 0.00 | 0.00 | 0.00 | 47 | 1008.6 |
| 20260506110053 | 57 | 0 | 0.0 | 7.0 | 0.00 | 0.00 | 0.00 | 44 | 1008.5 |
| 20260506105550 | 56 | 267 | 0.0 | 3.0 | 0.00 | 0.00 | 0.00 | 40 | 1008.5 |
| 20260506105051 | 55 | 0 | 0.0 | 12.0 | 0.00 | 0.00 | 0.00 | 36 | 1008.7 |
| 20260506104550 | 54 | 109 | 0.0 | 12.0 | 0.00 | 0.00 | 0.00 | 30 | 1008.5 |
| 20260506104049 | 53 | 173 | 4.0 | 12.0 | 0.00 | 0.00 | 0.00 | 26 | 1008.7 |
| 20260506103550 | 52 | 0 | 1.0 | 6.0 | 0.00 | 0.00 | 0.00 | 25 | 1008.8 |
| 20260506103049 | 51 | 115 | 2.0 | 6.0 | 0.00 | 0.00 | 0.00 | 25 | 1008.6 |
| 20260506102550 | 51 | 0 | 0.0 | 3.0 | 0.00 | 0.00 | 0.00 | 25 | 1008.6 |
| 20260506102103 | 50 | 0 | 0.0 | 3.0 | 0.00 | 0.00 | 0.00 | 25 | 1008.5 |
| 20260506101601 | 49 | 153 | 0.0 | 4.0 | 0.00 | 0.00 | 0.00 | 26 | 1008.4 |
| 20260506101049 | 49 | 0 | 1.0 | 4.0 | 0.00 | 0.00 | 0.00 | 25 | 1008.5 |
| 20260506100549 | 48 | 0 | 0.0 | 0.0 | 0.00 | 0.00 | 0.00 | 27 | 1008.5 |
| 20260506100057 | 48 | 0 | 0.0 | 0.0 | 0.00 | 0.00 | 0.00 | 28 | 1008.3 |
| 20260506095549 | 48 | 0 | 0.0 | 0.0 | 0.00 | 0.00 | 0.00 | 28 | 1008.3 |
| 20260506095049 | 48 | 0 | 0.0 | 2.0 | 0.00 | 0.00 | 0.00 | 29 | 1008.3 |
| 20260506094620 | 48 | 0 | 0.0 | 2.0 | 0.00 | 0.00 | 0.00 | 30 | 1008.2 |
| 20260506094049 | 47 | 0 | 0.0 | 0.0 | 0.00 | 0.00 | 0.00 | 31 | 1008.1 |
| 20260506093549 | 47 | 0 | 0.0 | 0.0 | 0.00 | 0.00 | 0.00 | 31 | 1008.1 |
| 20260506093048 | 47 | 0 | 0.0 | 0.0 | 0.00 | 0.00 | 0.00 | 32 | 1008.0 |
| 20260506092551 | 47 | 0 | 0.0 | 0.0 | 0.00 | 0.00 | 0.00 | 33 | 1008.0 |
| 20260506092050 | 48 | 0 | 0.0 | 0.0 | 0.00 | 0.00 | 0.00 | 33 | 1008.1 |
| 20260506091549 | 48 | 0 | 0.0 | 0.0 | 0.00 | 0.00 | 0.00 | 33 | 1008.1 |
| 20260506091049 | 48 | 0 | 0.0 | 0.0 | 0.00 | 0.00 | 0.00 | 34 | 1008.2 |
| 20260506090550 | 48 | 0 | 0.0 | 0.0 | 0.00 | 0.00 | 0.00 | 34 | 1008.3 |
| 20260506090051 | 48 | 0 | 0.0 | 0.0 | 0.00 | 0.00 | 0.00 | 34 | 1008.4 |
| 20260506085549 | 48 | 0 | 0.0 | 0.0 | 0.00 | 0.00 | 0.00 | 34 | 1008.5 |
| 20260506085049 | 48 | 0 | 0.0 | 0.0 | 0.00 | 0.00 | 0.00 | 34 | 1008.3 |
| 20260506084556 | 48 | 0 | 0.0 | 0.0 | 0.00 | 0.00 | 0.00 | 34 | 1008.4 |
| 20260506084049 | 48 | 0 | 0.0 | 0.0 | 0.00 | 0.00 | 0.00 | 35 | 1008.3 |
| 20260506083552 | 49 | 0 | 0.0 | 0.0 | 0.00 | 0.00 | 0.00 | 35 | 1008.4 |
| 20260506083050 | 49 | 0 | 0.0 | 0.0 | 0.00 | 0.00 | 0.00 | 35 | 1008.4 |
| 20260506082549 | 49 | 0 | 0.0 | 0.0 | 0.00 | 0.00 | 0.00 | 35 | 1008.3 |
| 20260506082049 | 49 | 0 | 0.0 | 0.0 | 0.00 | 0.00 | 0.00 | 35 | 1008.5 |
| 20260506081551 | 49 | 0 | 0.0 | 0.0 | 0.00 | 0.00 | 0.00 | 36 | 1008.6 |
| 20260506081050 | 49 | 0 | 0.0 | 0.0 | 0.00 | 0.00 | 0.00 | 36 | 1008.5 |
| 20260506080550 | 49 | 0 | 0.0 | 0.0 | 0.00 | 0.00 | 0.00 | 36 | 1008.6 |
| 20260506073057 | 51 | 0 | 0.0 | 0.0 | 0.00 | 0.00 | 0.00 | 39 | 1008.7 |
| 20260506072550 | 51 | 0 | 0.0 | 0.0 | 0.00 | 0.00 | 0.00 | 39 | 1008.8 |
| 20260506072050 | 51 | 0 | 0.0 | 0.0 | 0.00 | 0.00 | 0.00 | 39 | 1008.9 |
| 20260506071556 | 51 | 0 | 0.0 | 0.0 | 0.00 | 0.00 | 0.00 | 39 | 1008.9 |
| 20260506071049 | 51 | 0 | 0.0 | 0.0 | 0.00 | 0.00 | 0.00 | 39 | 1008.8 |
| 20260506070553 | 51 | 0 | 0.0 | 0.0 | 0.00 | 0.00 | 0.00 | 39 | 1009.0 |
| 20260506062055 | 53 | 0 | 0.0 | 0.0 | 0.00 | 0.00 | 0.00 | 42 | 1008.9 |
| 20260506061552 | 53 | 0 | 0.0 | 0.0 | 0.00 | 0.00 | 0.00 | 43 | 1008.9 |
| 20260506061053 | 53 | 0 | 0.0 | 0.0 | 0.00 | 0.00 | 0.00 | 43 | 1008.8 |
| 20260506060550 | 53 | 0 | 0.0 | 0.0 | 0.00 | 0.00 | 0.00 | 43 | 1008.8 |
| 20260506060121 | 54 | 0 | 0.0 | 0.0 | 0.00 | 0.00 | 0.00 | 44 | 1008.9 |
| 20260506051051 | 56 | 0 | 0.0 | 0.0 | 0.00 | 0.00 | 0.00 | 52 | 1009.3 |
| 20260506050551 | 56 | 0 | 0.0 | 0.0 | 0.00 | 0.00 | 0.00 | 53 | 1009.3 |
| 20260506045055 | 57 | 0 | 0.0 | 0.0 | 0.00 | 0.00 | 0.00 | 55 | 1009.2 |
| 20260506044605 | 57 | 0 | 0.0 | 0.0 | 0.00 | 0.00 | 0.00 | 56 | 1009.3 |
| 20260506044053 | 57 | 0 | 0.0 | 0.0 | 0.00 | 0.00 | 0.00 | 57 | 1009.3 |
| 20260506043552 | 58 | 0 | 0.0 | 0.0 | 0.00 | 0.00 | 0.00 | 57 | 1009.3 |
| 20260506043052 | 58 | 0 | 0.0 | 0.0 | 0.00 | 0.00 | 0.00 | 58 | 1009.1 |
| 20260506042551 | 58 | 0 | 0.0 | 0.0 | 0.00 | 0.00 | 0.00 | 58 | 1009.1 |
| 20260506042052 | 58 | 0 | 0.0 | 0.0 | 0.00 | 0.00 | 0.00 | 59 | 1008.9 |
| 20260506041557 | 58 | 0 | 0.0 | 0.0 | 0.00 | 0.00 | 0.00 | 59 | 1008.9 |
| 20260506041052 | 59 | 0 | 0.0 | 0.0 | 0.00 | 0.00 | 0.00 | 60 | 1008.9 |
| 20260506040551 | 59 | 0 | 0.0 | 0.0 | 0.00 | 0.00 | 0.00 | 61 | 1008.7 |
| 20260506040057 | 59 | 0 | 0.0 | 0.0 | 0.00 | 0.00 | 0.00 | 62 | 1008.8 |
| 20260506035551 | 59 | 0 | 0.0 | 0.0 | 0.00 | 0.00 | 0.00 | 62 | 1008.7 |
| 20260506035051 | 59 | 0 | 0.0 | 0.0 | 0.00 | 0.00 | 0.00 | 63 | 1008.8 |
| 20260506034552 | 59 | 0 | 0.0 | 0.0 | 0.00 | 0.00 | 0.00 | 64 | 1008.8 |
| 20260506034051 | 60 | 0 | 0.0 | 0.0 | 0.00 | 0.00 | 0.00 | 64 | 1008.8 |
| 20260506033550 | 60 | 0 | 0.0 | 0.0 | 0.00 | 0.00 | 0.00 | 65 | 1008.8 |
| 20260506033052 | 60 | 0 | 0.0 | 0.0 | 0.00 | 0.00 | 0.00 | 66 | 1008.8 |
| 20260506032556 | 60 | 0 | 0.0 | 0.0 | 0.00 | 0.00 | 0.00 | 66 | 1008.6 |
| 20260506032052 | 60 | 0 | 0.0 | 0.0 | 0.00 | 0.00 | 0.00 | 66 | 1008.7 |
| 20260506031558 | 60 | 0 | 0.0 | 0.0 | 0.00 | 0.00 | 0.00 | 67 | 1008.7 |
| 20260506031050 | 61 | 0 | 0.0 | 0.0 | 0.00 | 0.00 | 0.00 | 67 | 1008.6 |
| 20260506030556 | 61 | 0 | 0.0 | 0.0 | 0.00 | 0.00 | 0.00 | 67 | 1008.7 |
| 20260506030055 | 61 | 0 | 0.0 | 0.0 | 0.00 | 0.00 | 0.00 | 67 | 1008.7 |
| 20260506025551 | 61 | 0 | 0.0 | 0.0 | 0.00 | 0.00 | 0.00 | 67 | 1008.8 |
| 20260506025051 | 61 | 0 | 0.0 | 0.0 | 0.00 | 0.00 | 0.00 | 67 | 1008.8 |
| 20260506024600 | 61 | 0 | 0.0 | 0.0 | 0.00 | 0.00 | 0.00 | 67 | 1008.9 |
| 20260506024051 | 61 | 0 | 0.0 | 0.0 | 0.00 | 0.00 | 0.00 | 67 | 1008.8 |
| 20260506023552 | 61 | 0 | 0.0 | 0.0 | 0.00 | 0.00 | 0.00 | 67 | 1009.0 |
| 20260506023058 | 61 | 0 | 0.0 | 0.0 | 0.00 | 0.00 | 0.00 | 67 | 1008.9 |
| 20260506022551 | 61 | 0 | 0.0 | 0.0 | 0.00 | 0.00 | 0.00 | 67 | 1008.9 |
| 20260506022051 | 61 | 0 | 0.0 | 0.0 | 0.00 | 0.00 | 0.00 | 68 | 1009.0 |
| 20260506021550 | 61 | 0 | 0.0 | 0.0 | 0.00 | 0.00 | 0.00 | 68 | 1009.0 |
| 20260506021051 | 61 | 0 | 0.0 | 0.0 | 0.00 | 0.00 | 0.00 | 68 | 1008.9 |
| 20260506020550 | 61 | 0 | 0.0 | 1.0 | 0.00 | 0.00 | 0.00 | 68 | 1008.9 |
| 20260506020048 | 62 | 0 | 0.0 | 1.0 | 0.00 | 0.00 | 0.00 | 68 | 1009.0 |
| 20260506015553 | 62 | 0 | 0.0 | 0.0 | 0.00 | 0.00 | 0.00 | 68 | 1008.9 |
| 20260506015050 | 62 | 0 | 0.0 | 0.0 | 0.00 | 0.00 | 0.00 | 68 | 1009.0 |
| 20260506014554 | 62 | 0 | 0.0 | 0.0 | 0.00 | 0.00 | 0.00 | 68 | 1008.9 |
| 20260506014052 | 62 | 0 | 0.0 | 0.0 | 0.00 | 0.00 | 0.00 | 68 | 1008.7 |
| 20260506013553 | 62 | 0 | 0.0 | 0.0 | 0.00 | 0.00 | 0.00 | 68 | 1008.8 |
| 20260506013052 | 62 | 0 | 0.0 | 0.0 | 0.00 | 0.00 | 0.00 | 68 | 1008.6 |
| 20260506012551 | 62 | 0 | 0.0 | 0.0 | 0.00 | 0.00 | 0.00 | 68 | 1008.6 |
| 20260506012052 | 63 | 0 | 0.0 | 0.0 | 0.00 | 0.00 | 0.00 | 68 | 1008.6 |
| 20260506011556 | 63 | 0 | 0.0 | 0.0 | 0.00 | 0.00 | 0.00 | 68 | 1008.7 |
| 20260506011051 | 63 | 0 | 0.0 | 0.0 | 0.00 | 0.00 | 0.00 | 68 | 1008.7 |
| 20260506010555 | 63 | 0 | 0.0 | 2.0 | 0.00 | 0.00 | 0.00 | 67 | 1008.6 |
| 20260506010054 | 63 | 0 | 0.0 | 2.0 | 0.00 | 0.00 | 0.00 | 67 | 1008.6 |
| 20260506005554 | 63 | 0 | 0.0 | 2.0 | 0.00 | 0.00 | 0.00 | 67 | 1008.5 |
| 20260506005050 | 63 | 0 | 0.0 | 0.0 | 0.00 | 0.00 | 0.00 | 67 | 1008.5 |
| 20260506004554 | 63 | 0 | 0.0 | 2.0 | 0.00 | 0.00 | 0.00 | 67 | 1008.4 |
| 20260506004052 | 63 | 0 | 0.0 | 2.0 | 0.00 | 0.00 | 0.00 | 67 | 1008.5 |
| 20260506003551 | 64 | 0 | 0.0 | 2.0 | 0.00 | 0.00 | 0.00 | 67 | 1008.4 |
| 20260506003053 | 64 | 0 | 0.0 | 1.0 | 0.00 | 0.00 | 0.00 | 67 | 1008.3 |
| 20260506002551 | 64 | 0 | 0.0 | 0.0 | 0.00 | 0.00 | 0.00 | 67 | 1008.3 |
| 20260506002051 | 64 | 0 | 0.0 | 0.0 | 0.00 | 0.00 | 0.00 | 66 | 1008.2 |
| 20260506001601 | 64 | 0 | 0.0 | 0.0 | 0.00 | 0.00 | 0.00 | 66 | 1008.1 |
| 20260506001052 | 64 | 0 | 0.0 | 0.0 | 0.00 | 0.00 | 0.00 | 65 | 1008.0 |
| 20260506000552 | 65 | 0 | 0.0 | 1.0 | 0.00 | 0.00 | 0.00 | 65 | 1008.1 |
| 20260506000054 | 65 | 0 | 0.0 | 1.0 | 0.00 | 0.00 | 0.00 | 65 | 1008.2 |
| 20260505235551 | 65 | 0 | 0.0 | 1.0 | 0.00 | 0.00 | 0.00 | 65 | 1008.0 |
| 20260505235051 | 65 | 0 | 0.0 | 2.0 | 0.00 | 0.00 | 0.00 | 65 | 1008.0 |
| 20260505234559 | 65 | 229 | 0.0 | 2.0 | 0.00 | 0.00 | 0.00 | 64 | 1008.0 |
| 20260505234054 | 65 | 0 | 1.0 | 2.0 | 0.00 | 0.00 | 0.00 | 64 | 1008.1 |
| 20260505233551 | 66 | 0 | 0.0 | 3.0 | 0.00 | 0.00 | 0.00 | 63 | 1008.2 |
| 20260505233055 | 66 | 0 | 0.0 | 3.0 | 0.00 | 0.00 | 0.00 | 63 | 1008.0 |
| 20260505232554 | 66 | 232 | 1.0 | 3.0 | 0.00 | 0.00 | 0.00 | 62 | 1007.9 |
| 20260505232051 | 66 | 186 | 1.0 | 9.0 | 0.00 | 0.00 | 0.00 | 62 | 1008.0 |
| 20260505231602 | 67 | 0 | 2.0 | 9.0 | 0.00 | 0.00 | 0.00 | 61 | 1007.8 |
| 20260505231050 | 67 | 167 | 1.0 | 9.0 | 0.00 | 0.00 | 0.00 | 60 | 1007.7 |
| 20260505230551 | 68 | 355 | 3.0 | 11.0 | 0.00 | 0.00 | 0.00 | 59 | 1007.7 |
| 20260505230059 | 70 | 241 | 4.0 | 14.0 | 0.00 | 0.00 | 0.00 | 55 | 1007.7 |
| 20260505225551 | 72 | 105 | 4.0 | 14.0 | 0.00 | 0.00 | 0.00 | 49 | 1007.8 |
| 20260505225053 | 74 | 251 | 3.0 | 13.0 | 0.00 | 0.00 | 0.00 | 44 | 1007.5 |
| 20260505224554 | 75 | 309 | 7.0 | 16.0 | 0.00 | 0.00 | 0.00 | 38 | 1007.1 |
| 20260505224051 | 75 | 223 | 7.0 | 16.0 | 0.00 | 0.00 | 0.00 | 37 | 1006.6 |
| 20260505223551 | 75 | 187 | 6.0 | 14.0 | 0.00 | 0.00 | 0.00 | 36 | 1006.2 |
| 20260505223049 | 75 | 254 | 4.0 | 14.0 | 0.00 | 0.00 | 0.00 | 36 | 1006.2 |
| 20260505222552 | 75 | 150 | 5.0 | 14.0 | 0.00 | 0.00 | 0.00 | 35 | 1005.9 |
| 20260505222051 | 75 | 297 | 4.0 | 16.0 | 0.00 | 0.00 | 0.00 | 35 | 1006.1 |
| 20260505221557 | 75 | 273 | 6.0 | 17.0 | 0.00 | 0.00 | 0.00 | 34 | 1006.1 |
| 20260505221051 | 75 | 232 | 6.0 | 17.0 | 0.00 | 0.00 | 0.00 | 34 | 1006.1 |
| 20260505220554 | 75 | 257 | 8.0 | 16.0 | 0.00 | 0.00 | 0.00 | 34 | 1005.9 |
| 20260505220056 | 76 | 223 | 3.0 | 17.0 | 0.00 | 0.00 | 0.00 | 34 | 1005.9 |
| 20260505215551 | 76 | 219 | 7.0 | 20.0 | 0.00 | 0.00 | 0.00 | 34 | 1006.0 |
| 20260505215051 | 76 | 213 | 7.0 | 20.0 | 0.00 | 0.00 | 0.00 | 34 | 1005.9 |
| 20260505214555 | 76 | 261 | 7.0 | 19.0 | 0.00 | 0.00 | 0.00 | 33 | 1006.0 |
| 20260505214051 | 76 | 263 | 7.0 | 22.0 | 0.00 | 0.00 | 0.00 | 34 | 1005.8 |
| 20260505213551 | 76 | 198 | 7.0 | 22.0 | 0.00 | 0.00 | 0.00 | 33 | 1005.9 |
| 20260505213059 | 77 | 235 | 9.0 | 19.0 | 0.00 | 0.00 | 0.00 | 33 | 1006.0 |
| 20260505212550 | 77 | 246 | 6.0 | 20.0 | 0.00 | 0.00 | 0.00 | 33 | 1005.8 |
| 20260505212051 | 77 | 267 | 7.0 | 20.0 | 0.00 | 0.00 | 0.00 | 33 | 1005.8 |
| 20260505211558 | 76 | 308 | 8.0 | 24.0 | 0.00 | 0.00 | 0.00 | 33 | 1005.7 |
| 20260505211051 | 76 | 316 | 10.0 | 25.0 | 0.00 | 0.00 | 0.00 | 33 | 1005.6 |
| 20260505210550 | 77 | 232 | 8.0 | 25.0 | 0.00 | 0.00 | 0.00 | 32 | 1005.6 |
| 20260505210054 | 77 | 225 | 5.0 | 19.0 | 0.00 | 0.00 | 0.00 | 32 | 1005.3 |
| 20260505205550 | 77 | 202 | 3.0 | 21.0 | 0.00 | 0.00 | 0.00 | 32 | 1005.4 |
| 20260505205051 | 77 | 279 | 9.0 | 21.0 | 0.00 | 0.00 | 0.00 | 32 | 1005.4 |
| 20260505204557 | 77 | 266 | 6.0 | 20.0 | 0.00 | 0.00 | 0.00 | 33 | 1005.6 |
| 20260505204050 | 77 | 234 | 7.0 | 17.0 | 0.00 | 0.00 | 0.00 | 33 | 1006.0 |
| 20260505203551 | 78 | 259 | 6.0 | 20.0 | 0.00 | 0.00 | 0.00 | 33 | 1005.8 |
| 20260505203100 | 77 | 330 | 8.0 | 24.0 | 0.00 | 0.00 | 0.00 | 33 | 1005.9 |
| 20260505202551 | 77 | 200 | 10.0 | 24.0 | 0.00 | 0.00 | 0.00 | 33 | 1005.9 |
| 20260505202051 | 77 | 225 | 8.0 | 19.0 | 0.00 | 0.00 | 0.00 | 34 | 1005.9 |
| 20260505201601 | 76 | 234 | 9.0 | 26.0 | 0.00 | 0.00 | 0.00 | 34 | 1005.7 |
| 20260505201051 | 77 | 294 | 10.0 | 26.0 | 0.00 | 0.00 | 0.00 | 34 | 1005.7 |
| 20260505200551 | 77 | 155 | 7.0 | 19.0 | 0.00 | 0.00 | 0.00 | 33 | 1005.8 |
| 20260505195553 | 77 | 293 | 8.0 | 24.0 | 0.00 | 0.00 | 0.00 | 34 | 1005.9 |
| 20260505195050 | 77 | 155 | 6.0 | 28.0 | 0.00 | 0.00 | 0.00 | 36 | 1006.0 |
| 20260505194607 | 76 | 248 | 8.0 | 28.0 | 0.00 | 0.00 | 0.00 | 36 | 1006.0 |
| 20260505194050 | 76 | 223 | 8.0 | 23.0 | 0.00 | 0.00 | 0.00 | 37 | 1006.0 |
| 20260505193550 | 75 | 209 | 4.0 | 20.0 | 0.00 | 0.00 | 0.00 | 37 | 1006.0 |
| 20260505193115 | 76 | 266 | 8.0 | 20.0 | 0.00 | 0.00 | 0.00 | 36 | 1006.0 |
| 20260505192550 | 76 | 267 | 6.0 | 18.0 | 0.00 | 0.00 | 0.00 | 37 | 1006.2 |
| 20260505192050 | 76 | 194 | 6.0 | 19.0 | 0.00 | 0.00 | 0.00 | 37 | 1006.2 |
| 20260505191632 | 76 | 192 | 9.0 | 22.0 | 0.00 | 0.00 | 0.00 | 36 | 1006.2 |
| 20260505191049 | 77 | 259 | 9.0 | 23.0 | 0.00 | 0.00 | 0.00 | 37 | 1006.3 |
| 20260505190551 | 76 | 219 | 8.0 | 24.0 | 0.00 | 0.00 | 0.00 | 37 | 1006.2 |
| 20260505190112 | 76 | 136 | 8.0 | 24.0 | 0.00 | 0.00 | 0.00 | 37 | 1006.4 |
| 20260505185553 | 77 | 273 | 10.0 | 28.0 | 0.00 | 0.00 | 0.00 | 36 | 1006.4 |
| 20260505185051 | 77 | 217 | 11.0 | 28.0 | 0.00 | 0.00 | 0.00 | 37 | 1006.4 |
| 20260505184613 | 77 | 235 | 10.0 | 25.0 | 0.00 | 0.00 | 0.00 | 36 | 1006.3 |
| 20260505184051 | 77 | 206 | 9.0 | 23.0 | 0.00 | 0.00 | 0.00 | 36 | 1006.6 |
| 20260505183550 | 77 | 335 | 9.0 | 29.0 | 0.00 | 0.00 | 0.00 | 37 | 1006.6 |
| 20260505183056 | 77 | 304 | 9.0 | 30.0 | 0.00 | 0.00 | 0.00 | 37 | 1006.6 |